Meteopurmerend
purmerend
Purmerend - Baaienwijk



My webcam  My webcam


Onweer radar Meer informatie blitzortung!


Regen radar Meer informatie rain snow radar


Bezoek onze andere website:

CandyAppleRed WebdesignWebdesign Purmerend Candy Apple Red

MeteopurmerendBlog

Template documentation
and downloads



Het weer levert geen direct gevaar op.    Er zijn geen waarschuwingen afgegeven.

METAR rapporten vliegvelden

   
EHAM - Amsterdam
Gewijzigd: 21-06-2018 11:25
Licht bewolkt  
Licht bewolkt  
   Wind: WNW 40.7 km/h
Wind: WNW 40.7 km/h
Temperatuur: 15°C
Dauwpunt: 6°C
Vochtigheid: 55%
Barometer: 1019 hPa
Bewolking: Few Clouds
Zicht: meer dan 10 km
Bewolking: Licht bewolkt 3400 ft
EHAM 210925Z 30022KT 270V330 9999 FEW034 15/06 Q1019 NOSIG
EHRD - Rotterdam
Gewijzigd: 21-06-2018 11:25
Grotendeels bewolkt  
Grotendeels bewolkt  
   Wind: NW 29.6 km/h
Wind: NW 29.6 km/h
Temperatuur: 15°C
Dauwpunt: 7°C
Vochtigheid: 59%
Barometer: 1020 hPa
Bewolking: Mostly Cloudy
Zicht: meer dan 10 km
Bewolking: Grotendeels bewolkt 3200 ft,
Grotendeels bewolkt 3700 ft
EHRD 210925Z AUTO 31016KT 250V010 9999 BKN032 BKN037 15/07 Q1020 NOSIG
EHLE - Lelystad
Gewijzigd: 01-01-1970 01:00
Verouderd
  
  
   Wind: Kalm
Wind: Kalm
EHBK - Maastricht
Gewijzigd: 21-06-2018 11:25
Bewolking  
Bewolking  
   Wind: WNW 20.4 km/h
Wind: WNW 20.4 km/h
Temperatuur: 16°C
Dauwpunt: 10°C
Vochtigheid: 68%
Barometer: 1019 hPa
Bewolking: Overcast
Zicht: meer dan 10 km
Bewolking: Gedeeltelijk bewolkt 2600 ft,
Bewolking 3000 ft
EHBK 210925Z AUTO 30011KT 250V360 9999 SCT026 OVC030 16/10 Q1019 NOSIG
ELLX - Luxemburg
Gewijzigd: 21-06-2018 11:20
Gedeeltelijk bewolkt  
Gedeeltelijk bewolkt  
   Wind: NW 25.9 km/h
Wind: NW 25.9 km/h
Temperatuur: 19°C
Dauwpunt: 14°C
Vochtigheid: 73%
Barometer: 1019 hPa
Bewolking: Partly Cloudy
Zicht: meer dan 10 km
Bewolking: Licht bewolkt 1700 ft,
Gedeeltelijk bewolkt 2600 ft
ELLX 210920Z 32014KT 280V360 9999 FEW017 SCT026 19/14 Q1019 NOSIG
EBOS - Oostende
Gewijzigd: 21-06-2018 11:20
Licht bewolkt  
Licht bewolkt  
   Wind: NW 29.6 km/h
Wind: NW 29.6 km/h
Temperatuur: 15°C
Dauwpunt: 7°C
Vochtigheid: 59%
Barometer: 1023 hPa
Bewolking: Few Clouds
Zicht: meer dan 10 km
Bewolking: Licht bewolkt 2500 ft
EBOS 210920Z 32016KT 9999 FEW025 15/07 Q1023 NOSIG

Script ontwikkeld door  Saratoga-weather.org Aangepast voor de template door  Weerstation Leuven

U vindt ons ook hier:

UK Metoffice

European Weather Network

Weather Underground

AWEKAS

Citizen Weather Observer Program (CWOP)

HAMweather, WeatherForYou, PWS Weather

Apparatuur in gebruik:

Weerstation
Davis Vue

Weerprogramma
Meteobridge

Weercomputer
QR code

Webleverancier
Wned

Davis Vue

Meteobridge

QR code

Wned